createdAt,value
2023-03-21T00:01:37.767Z,48.28
2023-03-21T00:04:04.268Z,48.33
2023-03-21T00:06:31.058Z,48.63
2023-03-21T00:08:57.478Z,48.52
2023-03-21T00:11:23.817Z,48.52
2023-03-21T00:13:50.196Z,48.15
2023-03-21T00:16:26.357Z,48.29
2023-03-21T00:19:06.503Z,48.23
2023-03-21T00:21:48.772Z,48.19
2023-03-21T00:24:15.472Z,48.28
2023-03-21T00:26:41.892Z,48.33
2023-03-21T00:29:08.253Z,48.26
2023-03-21T00:31:34.847Z,48.13
2023-03-21T00:34:01.907Z,48.17
2023-03-21T00:36:28.453Z,48.49
2023-03-21T00:38:54.985Z,48.44
2023-03-21T00:41:35.000Z,48.46
2023-03-21T00:44:05.287Z,48.53
2023-03-21T00:46:42.789Z,48.40
2023-03-21T00:49:11.817Z,48.55
2023-03-21T00:51:38.174Z,49.11
2023-03-21T00:54:05.780Z,49.00
2023-03-21T00:56:32.343Z,48.99
2023-03-21T00:58:58.829Z,49.09
2023-03-21T01:01:26.589Z,48.73
2023-03-21T01:04:05.409Z,49.19
2023-03-21T01:06:32.689Z,49.09
2023-03-21T01:08:59.109Z,49.01
2023-03-21T01:11:27.017Z,49.00
2023-03-21T01:13:59.771Z,49.05
2023-03-21T01:16:31.434Z,49.05
2023-03-21T01:19:03.345Z,49.22
2023-03-21T01:21:32.072Z,49.06
2023-03-21T01:23:58.958Z,48.82
2023-03-21T01:26:25.409Z,49.24
2023-03-21T01:28:51.792Z,49.17
2023-03-21T01:31:18.615Z,49.17
2023-03-21T01:33:45.057Z,48.80
2023-03-21T01:36:22.310Z,49.49
2023-03-21T01:38:49.732Z,49.37
2023-03-21T01:41:36.758Z,49.21
2023-03-21T01:44:07.335Z,49.20
2023-03-21T01:46:57.088Z,49.79
2023-03-21T01:49:34.386Z,49.67
2023-03-21T01:52:11.451Z,49.39
2023-03-21T01:54:41.137Z,49.55
2023-03-21T01:57:09.930Z,49.35
2023-03-21T01:59:38.607Z,49.68
2023-03-21T02:02:07.394Z,49.75
2023-03-21T02:04:35.574Z,50.04
2023-03-21T02:07:07.587Z,49.83
2023-03-21T02:09:36.290Z,49.20
2023-03-21T02:12:03.363Z,49.80
2023-03-21T02:14:33.334Z,49.62
2023-03-21T02:17:11.973Z,49.84
2023-03-21T02:19:53.955Z,49.79
2023-03-21T02:22:20.677Z,49.72
2023-03-21T02:25:01.439Z,49.62
2023-03-21T02:27:34.593Z,49.62
2023-03-21T02:30:14.904Z,49.51
2023-03-21T02:32:58.759Z,50.11
2023-03-21T02:35:54.171Z,50.12
2023-03-21T02:38:30.656Z,49.62
2023-03-21T02:41:10.045Z,49.69
2023-03-21T02:43:44.382Z,50.27
2023-03-21T02:46:13.889Z,50.44
2023-03-21T02:48:52.860Z,50.17
2023-03-21T02:51:22.061Z,49.83
2023-03-21T02:54:24.576Z,50.10
2023-03-21T02:56:46.069Z,49.78
2023-03-21T02:59:12.869Z,49.88
2023-03-21T03:01:39.323Z,49.71
2023-03-21T03:04:17.874Z,50.05
2023-03-21T03:06:48.197Z,50.04
2023-03-21T03:09:19.918Z,50.01
2023-03-21T03:11:48.306Z,50.15
2023-03-21T03:17:11.167Z,50.95
2023-03-21T03:19:51.477Z,49.94
2023-03-21T03:22:23.585Z,49.99
2023-03-21T03:24:58.579Z,50.18
2023-03-21T03:27:28.227Z,50.13
2023-03-21T03:29:55.177Z,50.15
2023-03-21T03:32:25.625Z,49.95
2023-03-21T03:34:56.399Z,49.81
2023-03-21T03:37:29.475Z,50.52
2023-03-21T03:40:00.459Z,49.61
2023-03-21T03:42:30.465Z,50.12
2023-03-21T03:44:57.340Z,49.91
2023-03-21T03:47:42.062Z,49.73
2023-03-21T03:50:32.201Z,49.87
2023-03-21T03:53:18.419Z,50.18
2023-03-21T03:55:45.706Z,50.06
2023-03-21T03:58:21.579Z,50.21
2023-03-21T04:00:48.997Z,50.17
2023-03-21T04:03:16.076Z,50.29
2023-03-21T04:05:46.335Z,50.42
2023-03-21T04:08:13.818Z,50.17
2023-03-21T04:10:40.841Z,50.28
2023-03-21T04:13:07.425Z,50.11
2023-03-21T04:15:33.865Z,50.17
2023-03-21T04:18:00.562Z,50.61
2023-03-21T04:20:36.619Z,50.30
2023-03-21T04:23:04.230Z,50.51
2023-03-21T04:25:34.177Z,50.21
2023-03-21T04:28:01.052Z,50.25
2023-03-21T04:30:27.488Z,50.72
2023-03-21T04:33:01.170Z,50.44
2023-03-21T04:35:28.490Z,50.51
2023-03-21T04:37:55.531Z,50.30
2023-03-21T04:40:22.258Z,50.27
2023-03-21T04:42:48.988Z,50.31
2023-03-21T04:45:16.186Z,50.53
2023-03-21T04:47:42.848Z,50.53
2023-03-21T04:50:10.677Z,50.53
2023-03-21T04:52:37.087Z,50.39
2023-03-21T04:55:03.765Z,50.35
2023-03-21T04:57:30.176Z,50.58
2023-03-21T04:59:56.569Z,50.35
2023-03-21T05:02:22.995Z,50.74
2023-03-21T05:04:49.387Z,50.67
2023-03-21T05:07:15.824Z,50.73
2023-03-21T05:09:42.186Z,50.43
2023-03-21T05:12:08.574Z,50.40
2023-03-21T05:14:34.980Z,50.52
2023-03-21T05:17:05.197Z,50.41
2023-03-21T05:19:35.630Z,50.54
2023-03-21T05:22:04.643Z,50.72
2023-03-21T05:24:32.097Z,50.62
2023-03-21T05:27:02.152Z,50.36
2023-03-21T05:29:29.742Z,50.41
2023-03-21T05:31:56.517Z,50.80
2023-03-21T05:34:23.115Z,51.03
2023-03-21T05:36:49.553Z,50.65
2023-03-21T05:39:16.111Z,50.68
2023-03-21T05:41:42.559Z,50.30
2023-03-21T05:44:08.923Z,50.15
2023-03-21T05:46:35.540Z,50.46
2023-03-21T05:49:02.814Z,50.58
2023-03-21T05:51:29.180Z,50.47
2023-03-21T05:53:55.719Z,51.58
2023-03-21T05:56:22.126Z,51.85
2023-03-21T05:58:48.460Z,50.86
2023-03-21T06:01:14.948Z,50.72
2023-03-21T06:03:41.405Z,50.61
2023-03-21T06:06:08.089Z,51.34
2023-03-21T06:08:34.488Z,50.97
2023-03-21T06:11:00.930Z,52.07
2023-03-21T06:13:27.366Z,51.89
2023-03-21T06:15:53.855Z,51.01
2023-03-21T06:18:20.286Z,51.01
2023-03-21T06:20:46.657Z,51.18
2023-03-21T06:23:13.087Z,51.72
2023-03-21T06:25:39.760Z,51.31
2023-03-21T06:28:06.335Z,51.41
2023-03-21T06:30:32.792Z,51.63
2023-03-21T06:32:59.148Z,50.81
2023-03-21T06:35:25.721Z,50.92
2023-03-21T06:37:52.118Z,50.87
2023-03-21T06:40:18.540Z,51.88
2023-03-21T06:42:44.920Z,51.84
2023-03-21T06:45:11.584Z,51.11
2023-03-21T06:47:38.043Z,51.60
2023-03-21T06:50:07.029Z,51.52
2023-03-21T06:52:33.442Z,51.67
2023-03-21T06:54:59.805Z,51.49
2023-03-21T06:57:26.174Z,50.84
2023-03-21T06:59:52.580Z,50.99
2023-03-21T07:02:19.023Z,50.93
2023-03-21T07:04:45.442Z,51.69
2023-03-21T07:07:11.851Z,51.27
2023-03-21T07:09:38.208Z,51.17
2023-03-21T07:12:04.654Z,51.90
2023-03-21T07:14:32.069Z,51.66
2023-03-21T07:16:58.486Z,51.57
2023-03-21T07:19:24.864Z,51.41
2023-03-21T07:21:51.221Z,51.16
2023-03-21T07:24:17.573Z,52.21
2023-03-21T07:26:43.987Z,51.44
2023-03-21T07:29:10.541Z,51.40
2023-03-21T07:31:37.500Z,51.52
2023-03-21T07:34:03.951Z,51.15
2023-03-21T07:36:30.685Z,51.49
2023-03-21T07:38:57.091Z,50.85
2023-03-21T07:41:23.453Z,51.27
2023-03-21T07:43:49.882Z,51.60
2023-03-21T07:46:16.305Z,51.04
2023-03-21T07:48:42.706Z,51.48
2023-03-21T07:51:09.637Z,51.58
2023-03-21T07:53:36.141Z,51.17
2023-03-21T07:56:02.636Z,51.10
2023-03-21T07:58:29.039Z,53.14
2023-03-21T08:00:58.431Z,51.69
2023-03-21T08:03:26.476Z,51.97
2023-03-21T08:05:52.934Z,52.58
2023-03-21T08:08:19.343Z,53.47
2023-03-21T08:10:45.713Z,52.68
2023-03-21T08:13:12.378Z,52.56
2023-03-21T08:15:42.478Z,52.23
2023-03-21T08:18:10.123Z,52.43
2023-03-21T08:20:36.692Z,52.13
2023-03-21T08:23:03.326Z,51.72
2023-03-21T08:25:30.001Z,51.87
2023-03-21T08:27:56.397Z,52.11
2023-03-21T08:30:24.072Z,51.49
2023-03-21T08:32:50.591Z,51.73
2023-03-21T08:35:19.070Z,51.55
2023-03-21T08:37:45.445Z,51.31
2023-03-21T08:40:13.965Z,51.53
2023-03-21T08:42:40.888Z,51.19
2023-03-21T08:45:07.950Z,51.19
2023-03-21T08:47:34.425Z,51.13
2023-03-21T08:50:00.871Z,50.84
2023-03-21T08:52:28.230Z,50.55
2023-03-21T08:54:55.133Z,50.84
2023-03-21T08:57:21.707Z,50.98
2023-03-21T08:59:48.274Z,50.57
2023-03-21T09:02:16.330Z,50.57
2023-03-21T09:04:43.951Z,51.00
2023-03-21T09:07:12.543Z,50.73
2023-03-21T09:09:39.365Z,50.52
2023-03-21T09:12:05.897Z,50.56
2023-03-21T09:14:33.296Z,50.48
2023-03-21T09:16:59.694Z,50.77
2023-03-21T09:19:26.404Z,50.46
2023-03-21T09:21:53.910Z,50.58
2023-03-21T09:24:20.743Z,50.79
2023-03-21T09:26:51.057Z,50.29
2023-03-21T09:29:19.151Z,50.63
2023-03-21T09:31:46.948Z,50.58
2023-03-21T09:34:15.379Z,50.38
2023-03-21T09:36:44.231Z,50.36
2023-03-21T09:39:12.066Z,50.26
2023-03-21T09:41:52.096Z,50.33
2023-03-21T09:44:29.802Z,50.34
2023-03-21T09:47:06.146Z,50.09
2023-03-21T09:49:35.384Z,50.38
2023-03-21T09:52:06.670Z,49.98
2023-03-21T09:54:35.732Z,50.03
2023-03-21T09:57:05.134Z,49.64
2023-03-21T09:59:35.860Z,49.81
2023-03-21T10:02:03.351Z,49.67
2023-03-21T10:04:31.973Z,49.34
2023-03-21T10:06:59.772Z,49.49
2023-03-21T10:09:28.038Z,49.42
2023-03-21T10:12:08.315Z,49.00
2023-03-21T10:14:43.782Z,49.28
2023-03-21T10:17:12.926Z,49.17
2023-03-21T10:19:39.490Z,49.02
2023-03-21T10:22:06.200Z,48.87
2023-03-21T10:24:34.057Z,49.07
2023-03-21T10:27:01.317Z,48.98
2023-03-21T10:29:30.548Z,48.78
2023-03-21T10:31:57.249Z,48.89
2023-03-21T10:34:29.844Z,48.76
2023-03-21T10:36:56.359Z,49.01
2023-03-21T10:39:39.802Z,48.54
2023-03-21T10:42:06.778Z,48.79
2023-03-21T10:44:34.715Z,48.66
2023-03-21T10:47:04.262Z,48.36
2023-03-21T10:49:40.256Z,48.32
2023-03-21T10:52:09.267Z,48.67
2023-03-21T10:54:35.792Z,48.38
2023-03-21T10:57:09.782Z,48.73
2023-03-21T10:59:43.065Z,48.76
2023-03-21T11:02:17.670Z,48.75
2023-03-21T11:04:44.806Z,48.92
2023-03-21T11:07:14.398Z,48.52
2023-03-21T11:09:54.317Z,48.67
2023-03-21T11:12:29.612Z,49.03
2023-03-21T11:14:57.427Z,48.65
2023-03-21T11:17:25.884Z,49.04
2023-03-21T11:19:53.781Z,49.18
2023-03-21T11:22:22.276Z,49.25
2023-03-21T11:24:51.439Z,48.95
2023-03-21T11:27:18.001Z,49.15
2023-03-21T11:29:46.430Z,49.03
2023-03-21T11:32:19.779Z,49.13
2023-03-21T11:34:49.264Z,48.76
2023-03-21T11:37:26.689Z,49.28
2023-03-21T11:40:16.250Z,49.22
2023-03-21T11:42:44.165Z,49.13
2023-03-21T11:45:12.896Z,48.95
2023-03-21T11:47:39.788Z,48.71
2023-03-21T11:50:16.679Z,48.93
2023-03-21T11:52:51.361Z,49.40
2023-03-21T11:55:31.515Z,48.98
2023-03-21T11:58:13.952Z,48.98
2023-03-21T12:00:59.533Z,49.37
2023-03-21T12:03:47.560Z,49.11
2023-03-21T12:06:21.317Z,49.58
2023-03-21T12:09:00.071Z,49.54
2023-03-21T12:11:38.565Z,49.13
2023-03-21T12:14:16.890Z,49.21
2023-03-21T12:16:49.756Z,49.28
2023-03-21T12:19:45.211Z,49.21
2023-03-21T12:22:29.523Z,49.09
2023-03-21T12:24:57.203Z,49.37
2023-03-21T12:27:41.888Z,49.17
2023-03-21T12:30:26.672Z,49.25
2023-03-21T12:33:07.821Z,49.26
2023-03-21T12:35:41.544Z,49.55
2023-03-21T12:38:16.114Z,49.21
2023-03-21T12:40:48.768Z,49.38
2023-03-21T12:43:15.553Z,49.35
2023-03-21T12:45:47.606Z,49.53
2023-03-21T12:48:19.171Z,49.52
2023-03-21T12:50:46.556Z,50.13
2023-03-21T12:53:24.341Z,49.65
2023-03-21T12:55:51.046Z,49.58
2023-03-21T12:58:20.397Z,49.94
2023-03-21T13:00:49.020Z,49.46
2023-03-21T13:03:30.224Z,49.82
2023-03-21T13:06:07.116Z,50.06
2023-03-21T13:08:37.364Z,49.68
2023-03-21T13:11:05.409Z,49.76
2023-03-21T13:13:35.181Z,50.27
2023-03-21T13:16:25.092Z,49.96
2023-03-21T13:18:59.273Z,50.00
2023-03-21T13:21:44.340Z,50.09
2023-03-21T13:24:29.808Z,50.11
2023-03-21T13:27:00.845Z,49.60
2023-03-21T13:29:29.626Z,49.83
2023-03-21T13:32:08.120Z,49.98
2023-03-21T13:34:34.698Z,49.79
2023-03-21T13:37:01.343Z,49.81
2023-03-21T13:39:29.298Z,50.53
2023-03-21T13:41:56.061Z,49.88
2023-03-21T13:44:32.929Z,49.86
2023-03-21T13:47:01.060Z,49.89
2023-03-21T13:49:27.673Z,50.15
2023-03-21T13:51:56.348Z,50.69
2023-03-21T13:54:24.310Z,50.24
2023-03-21T13:56:52.340Z,50.49
2023-03-21T13:59:37.802Z,50.89
2023-03-21T14:02:04.196Z,50.19
2023-03-21T14:04:41.967Z,50.48
2023-03-21T14:07:20.270Z,50.70
2023-03-21T14:09:49.233Z,50.98
2023-03-21T14:12:20.272Z,50.35
2023-03-21T14:14:50.120Z,50.43
2023-03-21T14:17:23.700Z,51.86
2023-03-21T14:19:54.293Z,50.91
2023-03-21T14:22:21.198Z,50.97
2023-03-21T14:25:01.098Z,50.47
2023-03-21T14:27:35.418Z,50.93
2023-03-21T14:30:02.321Z,51.17
2023-03-21T14:32:30.091Z,51.34
2023-03-21T14:34:57.876Z,50.98
2023-03-21T14:37:32.266Z,51.11
2023-03-21T14:40:02.473Z,51.14
2023-03-21T14:42:33.857Z,51.19
2023-03-21T22:17:24.108Z,52.82
2023-03-21T22:20:04.695Z,52.67
2023-03-21T22:22:32.247Z,51.89
2023-03-21T22:24:58.624Z,51.68
2023-03-21T22:27:25.031Z,51.78
2023-03-21T22:29:51.388Z,51.66
2023-03-21T22:32:19.176Z,51.64
2023-03-21T22:34:45.726Z,51.72
2023-03-21T22:37:12.155Z,51.35
2023-03-21T22:39:38.554Z,51.49
2023-03-21T22:42:05.037Z,51.49
2023-03-21T22:44:35.225Z,51.58
2023-03-21T22:47:02.497Z,51.66
2023-03-21T22:49:28.945Z,51.83
2023-03-21T22:51:55.406Z,51.73
2023-03-21T22:54:21.831Z,51.93
2023-03-21T22:56:48.251Z,51.59
2023-03-21T22:59:14.655Z,51.73
2023-03-21T23:01:41.061Z,51.85
2023-03-21T23:04:07.639Z,51.56
2023-03-21T23:06:34.053Z,51.91
2023-03-21T23:09:00.524Z,51.44
2023-03-21T23:11:26.904Z,51.97
2023-03-21T23:14:06.842Z,51.60
2023-03-21T23:16:34.954Z,51.63
2023-03-21T23:19:02.276Z,51.91
2023-03-21T23:21:28.738Z,51.94
2023-03-21T23:23:55.085Z,51.70
2023-03-21T23:26:22.745Z,51.58
2023-03-21T23:28:49.589Z,51.91
2023-03-21T23:31:18.311Z,51.66
2023-03-21T23:33:45.568Z,52.17
2023-03-21T23:36:12.760Z,51.92
2023-03-21T23:38:39.128Z,52.08
2023-03-21T23:41:09.468Z,52.30
2023-03-21T23:43:35.964Z,52.22
2023-03-21T23:46:02.491Z,53.91
2023-03-21T23:48:29.123Z,52.92
2023-03-21T23:50:55.941Z,52.54
2023-03-21T23:53:22.362Z,53.51
2023-03-21T23:55:51.957Z,52.54
2023-03-21T23:58:19.566Z,53.19
